createdAt,value
2019-01-22T00:05:58.520Z,24.10
2019-01-22T00:12:01.303Z,24.05
2019-01-22T00:18:03.676Z,24.67
2019-01-22T00:24:06.099Z,26.07
2019-01-22T00:30:11.924Z,25.17
2019-01-22T00:36:14.458Z,24.30
2019-01-22T00:42:16.866Z,23.55
2019-01-22T00:48:19.098Z,24.35
2019-01-22T00:54:21.343Z,26.07
2019-01-22T01:00:28.842Z,23.87
2019-01-22T01:06:31.075Z,23.65
2019-01-22T01:12:33.368Z,24.80
2019-01-22T01:18:35.654Z,24.57
2019-01-22T01:24:37.871Z,26.17
2019-01-22T01:30:40.306Z,24.23
2019-01-22T01:36:42.906Z,24.50
2019-01-22T01:42:45.841Z,26.85
2019-01-22T01:48:47.993Z,23.38
2019-01-22T01:54:52.067Z,23.50
2019-01-22T02:00:54.447Z,24.47
2019-01-22T02:06:57.155Z,24.18
2019-01-22T02:13:12.142Z,24.92
2019-01-22T02:19:33.586Z,23.20
2019-01-22T02:26:09.773Z,24.75
2019-01-22T02:33:18.387Z,22.70
2019-01-22T02:39:46.513Z,24.72
2019-01-22T02:46:26.918Z,24.60
2019-01-22T02:53:15.008Z,23.98
2019-01-22T02:59:51.893Z,23.47
2019-01-22T03:06:27.113Z,23.30
2019-01-22T03:12:40.550Z,23.80
2019-01-22T03:19:22.476Z,23.90
2019-01-22T03:25:53.404Z,24.30
2019-01-22T03:32:39.251Z,23.38
2019-01-22T03:39:17.212Z,23.83
2019-01-22T03:45:50.466Z,24.00
2019-01-22T03:52:24.012Z,23.35
2019-01-22T03:58:26.307Z,23.15
2019-01-22T04:04:28.570Z,26.00
2019-01-22T04:10:37.286Z,24.35
2019-01-22T04:16:39.758Z,24.30
2019-01-22T04:22:58.339Z,23.85
2019-01-22T04:29:28.250Z,24.57
2019-01-22T04:35:54.067Z,25.15
2019-01-22T04:42:41.030Z,25.55
2019-01-22T04:49:52.443Z,26.00
2019-01-22T04:56:42.838Z,25.72
2019-01-22T05:03:10.878Z,25.72
2019-01-22T05:10:15.282Z,26.07
2019-01-22T05:17:02.779Z,26.60
2019-01-22T05:23:58.228Z,26.07
2019-01-22T05:30:44.250Z,26.87
2019-01-22T05:37:15.054Z,25.57
2019-01-22T05:43:57.660Z,26.27
2019-01-22T05:50:37.841Z,24.77
2019-01-22T05:57:07.374Z,24.90
2019-01-22T06:03:39.275Z,24.30
2019-01-22T06:10:23.367Z,25.23
2019-01-22T06:17:19.085Z,25.45
2019-01-22T06:24:01.993Z,26.62
2019-01-22T06:30:42.424Z,25.62
2019-01-22T06:37:09.729Z,26.37
2019-01-22T06:43:46.734Z,25.80
2019-01-22T06:50:34.472Z,25.60
2019-01-22T06:57:05.070Z,25.50
2019-01-22T07:03:55.338Z,24.67
2019-01-22T07:10:10.630Z,25.30
2019-01-22T07:16:51.911Z,26.05
2019-01-22T07:23:51.398Z,25.43
2019-01-22T07:30:35.716Z,25.77
2019-01-22T07:37:08.363Z,27.82
2019-01-22T07:43:52.514Z,26.95
2019-01-22T07:50:31.733Z,28.87
2019-01-22T07:57:13.627Z,27.37
2019-01-22T08:03:51.573Z,26.80
2019-01-22T08:10:43.909Z,26.75
2019-01-22T08:17:37.075Z,25.52
2019-01-22T08:24:10.963Z,27.70
2019-01-22T08:30:49.811Z,26.33
2019-01-22T08:37:25.292Z,26.90
2019-01-22T08:44:08.951Z,27.25
2019-01-22T08:50:39.374Z,28.07
2019-01-22T08:56:58.042Z,29.48
2019-01-22T09:03:30.495Z,28.12
2019-01-22T09:09:52.301Z,27.73
2019-01-22T09:16:47.489Z,28.05
2019-01-22T09:23:38.241Z,27.13
2019-01-22T09:29:57.127Z,28.02
2019-01-22T09:36:31.336Z,27.65
2019-01-22T09:42:33.582Z,27.67
2019-01-22T09:48:37.395Z,28.62
2019-01-22T09:54:39.775Z,29.52
2019-01-22T10:00:41.947Z,29.72
2019-01-22T10:06:44.410Z,31.57
2019-01-22T10:12:48.265Z,31.52
2019-01-22T10:18:51.755Z,32.23
2019-01-22T10:24:54.159Z,31.60
2019-01-22T10:30:56.917Z,32.85
2019-01-22T10:36:59.269Z,32.00
2019-01-22T10:43:01.683Z,34.53
2019-01-22T10:49:04.348Z,33.13
2019-01-22T10:55:08.371Z,32.40
2019-01-22T11:01:11.219Z,32.85
2019-01-22T11:07:14.960Z,33.33
2019-01-22T11:13:17.184Z,33.70
2019-01-22T11:19:19.428Z,36.20
2019-01-22T11:25:22.331Z,32.93
2019-01-22T11:31:29.509Z,34.70
2019-01-22T11:37:31.770Z,35.13
2019-01-22T11:43:34.366Z,35.52
2019-01-22T11:49:37.778Z,33.00
2019-01-22T11:55:40.071Z,35.63
2019-01-22T12:01:42.996Z,35.75
2019-01-22T12:07:45.882Z,35.00
2019-01-22T12:13:53.980Z,36.55
2019-01-22T12:19:52.295Z,35.13
2019-01-22T12:25:57.378Z,36.38
2019-01-22T12:32:02.125Z,36.83
2019-01-22T12:38:04.727Z,36.85
2019-01-22T12:44:06.844Z,38.05
2019-01-22T12:50:10.719Z,38.28
2019-01-22T12:56:12.995Z,37.88
2019-01-22T13:02:15.488Z,40.65
2019-01-22T13:08:17.600Z,40.52
2019-01-22T13:14:20.327Z,39.78
2019-01-22T13:20:22.718Z,39.73
2019-01-22T13:26:25.091Z,38.25
2019-01-22T13:32:27.401Z,35.80
2019-01-22T13:38:30.199Z,35.80
2019-01-22T13:44:32.287Z,37.28
2019-01-22T13:50:35.819Z,36.33
2019-01-22T13:56:38.054Z,38.00
2019-01-22T14:02:40.290Z,39.58
2019-01-22T14:08:43.707Z,38.45
2019-01-22T14:14:45.946Z,39.33
2019-01-22T14:20:49.543Z,38.55
2019-01-22T14:26:51.839Z,38.30
2019-01-22T14:32:54.188Z,40.95
2019-01-22T14:38:56.638Z,40.23
2019-01-22T14:44:58.751Z,37.30
2019-01-22T14:51:01.567Z,39.27
2019-01-22T14:57:03.754Z,36.55
2019-01-22T15:03:05.959Z,38.15
2019-01-22T15:09:08.276Z,37.98
2019-01-22T15:15:12.650Z,37.65
2019-01-22T15:21:15.107Z,39.38
2019-01-22T15:27:36.693Z,38.40
2019-01-22T15:33:39.016Z,37.67
2019-01-22T15:39:44.714Z,37.08
2019-01-22T15:45:48.031Z,38.70
2019-01-22T15:51:53.375Z,39.08
2019-01-22T15:57:56.829Z,42.33
2019-01-22T16:04:00.066Z,38.83
2019-01-22T16:10:04.683Z,37.70
2019-01-22T16:16:08.654Z,40.75
2019-01-22T16:22:12.160Z,38.50
2019-01-22T16:28:14.346Z,38.28
2019-01-22T16:34:16.786Z,37.03
2019-01-22T16:40:21.074Z,39.63
2019-01-22T16:46:23.475Z,37.45
2019-01-22T16:52:25.725Z,38.28
2019-01-22T16:58:29.306Z,54.65
2019-01-22T17:04:31.724Z,75.22
2019-01-22T17:10:53.415Z,55.17
2019-01-22T17:16:55.674Z,46.80
2019-01-22T17:23:01.917Z,40.90
2019-01-22T17:29:02.163Z,38.17
2019-01-22T17:35:05.725Z,40.08
2019-01-22T17:41:11.393Z,39.20
2019-01-22T17:47:14.070Z,38.65
2019-01-22T17:53:16.351Z,38.95
2019-01-22T17:59:19.045Z,36.98
2019-01-22T18:05:21.420Z,33.28
2019-01-22T18:11:23.632Z,36.88
2019-01-22T18:17:25.984Z,36.08
2019-01-22T18:23:30.591Z,55.52
2019-01-22T18:29:32.926Z,49.40
2019-01-22T18:35:38.389Z,48.50
2019-01-22T18:41:42.882Z,43.65
2019-01-22T18:47:46.233Z,46.30
2019-01-22T18:53:48.470Z,44.95
2019-01-22T18:59:50.904Z,44.53
2019-01-22T19:05:53.745Z,42.75
2019-01-22T19:11:55.972Z,45.52
2019-01-22T19:17:58.400Z,45.00
2019-01-22T19:24:01.698Z,46.02
2019-01-22T19:30:08.062Z,46.02
2019-01-22T19:36:10.231Z,47.58
2019-01-22T19:42:14.387Z,46.75
2019-01-22T19:48:16.991Z,44.20
2019-01-22T19:54:19.497Z,47.73
2019-01-22T20:00:27.138Z,49.60
2019-01-22T20:06:29.467Z,66.42
2019-01-22T20:12:31.667Z,72.87
2019-01-22T20:18:34.143Z,70.10
2019-01-22T20:24:36.641Z,71.72
2019-01-22T20:30:39.835Z,74.53
2019-01-22T20:36:43.678Z,78.07
2019-01-22T20:42:48.243Z,78.78
2019-01-22T20:48:50.767Z,80.97
2019-01-22T20:54:53.565Z,80.83
2019-01-22T21:00:55.850Z,78.45
2019-01-22T21:06:58.552Z,84.83
2019-01-22T21:13:01.804Z,78.80
2019-01-22T21:19:04.055Z,75.12
2019-01-22T21:25:25.830Z,77.25
2019-01-22T21:31:28.207Z,76.12
2019-01-22T21:37:30.563Z,74.55
2019-01-22T21:43:35.519Z,72.32
2019-01-22T21:49:37.832Z,77.10
2019-01-22T21:55:40.124Z,69.87
2019-01-22T22:01:42.471Z,67.03
2019-01-22T22:07:44.638Z,69.75
2019-01-22T22:13:47.190Z,72.22
2019-01-22T22:19:50.563Z,69.72
2019-01-22T22:25:52.983Z,74.20
2019-01-22T22:31:55.286Z,72.75
2019-01-22T22:37:57.514Z,72.32
2019-01-22T22:44:01.258Z,69.92
2019-01-22T22:50:05.585Z,68.60
2019-01-22T22:56:07.739Z,70.22
2019-01-22T23:02:11.096Z,68.52
2019-01-22T23:08:13.258Z,72.42
2019-01-22T23:14:15.472Z,71.30
2019-01-22T23:20:17.752Z,66.47
2019-01-22T23:26:19.882Z,67.65
2019-01-22T23:32:22.156Z,67.32
2019-01-22T23:38:24.339Z,64.47
2019-01-22T23:44:26.746Z,59.35
2019-01-22T23:50:50.167Z,51.88
2019-01-22T23:56:52.434Z,50.88
